createdAt,value
2023-02-08T00:00:46.577Z,103052.80
2023-02-08T00:03:13.429Z,103052.64
2023-02-08T00:05:40.882Z,103056.10
2023-02-08T00:08:09.057Z,103058.58
2023-02-08T00:10:35.913Z,103058.79
2023-02-08T00:13:02.959Z,103062.02
2023-02-08T00:15:30.189Z,103064.05
2023-02-08T00:17:57.070Z,103064.85
2023-02-08T00:20:23.773Z,103064.09
2023-02-08T00:22:52.527Z,103069.14
2023-02-08T00:25:20.256Z,103071.48
2023-02-08T00:27:47.168Z,103074.98
2023-02-08T00:30:14.332Z,103077.86
2023-02-08T00:32:41.994Z,103087.59
2023-02-08T00:35:09.150Z,103087.13
2023-02-08T00:37:35.989Z,103090.80
2023-02-08T00:40:05.238Z,103092.20
2023-02-08T00:42:32.233Z,103095.42
2023-02-08T00:44:59.136Z,103101.30
2023-02-08T00:47:26.019Z,103105.83
2023-02-08T00:49:53.993Z,103100.50
2023-02-08T00:52:20.942Z,103103.02
2023-02-08T00:54:47.761Z,103102.78
2023-02-08T00:57:14.928Z,103102.04
2023-02-08T00:59:42.391Z,103100.40
2023-02-08T01:02:09.186Z,103098.41
2023-02-08T01:04:36.492Z,103100.98
2023-02-08T01:07:04.492Z,103103.38
2023-02-08T01:09:31.286Z,103105.25
2023-02-08T01:11:57.984Z,103099.85
2023-02-08T01:14:25.395Z,103105.84
2023-02-08T01:16:52.853Z,103106.43
2023-02-08T01:19:19.799Z,103105.33
2023-02-08T01:21:48.797Z,103108.48
2023-02-08T01:24:16.278Z,103113.33
2023-02-08T01:26:43.301Z,103112.23
2023-02-08T01:29:10.590Z,103113.69
2023-02-08T01:31:40.296Z,103120.45
2023-02-08T01:34:08.434Z,103122.67
2023-02-08T01:36:35.824Z,103124.16
2023-02-08T01:39:04.375Z,103123.36
2023-02-08T01:41:33.954Z,103128.02
2023-02-08T01:44:01.044Z,103130.41
2023-02-08T01:46:28.802Z,103128.35
2023-02-08T01:48:57.796Z,103123.74
2023-02-08T01:51:28.421Z,103123.58
2023-02-08T01:53:55.400Z,103128.92
2023-02-08T01:56:28.556Z,103131.77
2023-02-08T01:58:57.566Z,103142.41
2023-02-08T02:01:24.799Z,103144.59
2023-02-08T02:03:51.763Z,103148.83
2023-02-08T02:06:25.513Z,103155.58
2023-02-08T02:09:33.164Z,103164.48
2023-02-08T02:12:00.721Z,103161.50
2023-02-08T02:14:27.734Z,103162.50
2023-02-08T02:16:54.950Z,103158.86
2023-02-08T02:19:31.183Z,103165.95
2023-02-08T02:22:14.831Z,103170.76
2023-02-08T02:24:59.614Z,103170.24
2023-02-08T02:27:45.778Z,103170.08
2023-02-08T02:30:25.267Z,103174.02
2023-02-08T02:33:10.597Z,103172.39
2023-02-08T02:35:49.530Z,103178.06
2023-02-08T02:38:20.674Z,103182.83
2023-02-08T02:40:53.626Z,103182.60
2023-02-08T02:43:43.643Z,103190.91
2023-02-08T02:46:24.220Z,103190.38
2023-02-08T02:49:03.969Z,103190.29
2023-02-08T02:51:57.322Z,103188.71
2023-02-08T02:54:25.273Z,103191.29
2023-02-08T02:56:59.680Z,103189.39
2023-02-08T02:59:26.763Z,103189.23
2023-02-08T03:01:54.089Z,103194.70
2023-02-08T03:04:33.071Z,103194.19
2023-02-08T03:07:21.816Z,103193.05
2023-02-08T03:10:22.687Z,103193.63
2023-02-08T03:13:37.458Z,103193.99
2023-02-08T03:16:07.737Z,103195.73
2023-02-08T03:18:42.668Z,103203.35
2023-02-08T03:21:12.233Z,103202.48
2023-02-08T03:23:51.356Z,103198.98
2023-02-08T03:26:23.276Z,103199.38
2023-02-08T03:29:01.893Z,103201.14
2023-02-08T03:31:33.148Z,103197.84
2023-02-08T03:34:12.419Z,103199.77
2023-02-08T03:37:26.500Z,103200.75
2023-02-08T03:39:58.296Z,103205.56
2023-02-08T03:42:25.543Z,103205.55
2023-02-08T03:45:05.176Z,103218.68
2023-02-08T03:47:37.680Z,103221.91
2023-02-08T03:50:07.271Z,103221.67
2023-02-08T03:52:34.437Z,103224.11
2023-02-08T03:55:10.430Z,103231.26
2023-02-08T03:57:45.814Z,103233.52
2023-02-08T04:00:14.047Z,103231.22
2023-02-08T04:02:46.402Z,103236.92
2023-02-08T04:05:13.614Z,103244.20
2023-02-08T04:07:40.763Z,103248.48
2023-02-08T04:10:08.030Z,103248.41
2023-02-08T04:12:35.475Z,103252.38
2023-02-08T04:15:02.884Z,103260.48
2023-02-08T04:17:29.878Z,103263.11
2023-02-08T04:19:57.129Z,103266.20
2023-02-08T04:22:23.865Z,103265.33
2023-02-08T04:24:50.758Z,103267.73
2023-02-08T04:27:17.480Z,103267.42
2023-02-08T04:29:44.506Z,103263.76
2023-02-08T04:32:11.254Z,103263.86
2023-02-08T04:34:39.332Z,103264.42
2023-02-08T04:37:06.764Z,103271.20
2023-02-08T04:39:33.625Z,103279.63
2023-02-08T04:42:02.292Z,103280.36
2023-02-08T04:44:32.270Z,103278.25
2023-02-08T04:46:59.894Z,103283.32
2023-02-08T04:49:26.634Z,103281.11
2023-02-08T04:51:54.091Z,103282.14
2023-02-08T04:54:21.962Z,103293.31
2023-02-08T04:56:48.655Z,103302.04
2023-02-08T04:59:15.234Z,103309.40
2023-02-08T05:01:41.965Z,103316.06
2023-02-08T05:04:08.917Z,103327.14
2023-02-08T05:06:35.618Z,103327.17
2023-02-08T05:09:03.013Z,103338.33
2023-02-08T05:11:30.005Z,103337.71
2023-02-08T05:13:56.960Z,103339.27
2023-02-08T05:16:24.110Z,103348.17
2023-02-08T05:18:50.863Z,103349.41
2023-02-08T05:21:17.843Z,103344.80
2023-02-08T05:23:46.623Z,103343.36
2023-02-08T05:26:14.817Z,103348.87
2023-02-08T05:28:41.786Z,103343.63
2023-02-08T05:31:20.060Z,103344.70
2023-02-08T05:33:48.445Z,103339.89
2023-02-08T05:36:16.536Z,103339.88
2023-02-08T05:38:43.457Z,103343.06
2023-02-08T05:41:10.302Z,103348.73
2023-02-08T05:43:37.961Z,103349.02
2023-02-08T05:46:05.155Z,103352.71
2023-02-08T05:48:31.804Z,103351.28
2023-02-08T05:50:59.221Z,103350.77
2023-02-08T05:53:26.755Z,103348.45
2023-02-08T05:55:53.513Z,103349.52
2023-02-08T05:58:20.356Z,103346.86
2023-02-08T06:00:47.605Z,103347.66
2023-02-08T06:03:14.411Z,103352.36
2023-02-08T06:05:41.633Z,103357.12
2023-02-08T06:08:08.857Z,103354.30
2023-02-08T06:10:36.173Z,103350.67
2023-02-08T06:13:03.493Z,103352.95
2023-02-08T06:15:30.506Z,103352.52
2023-02-08T06:17:57.994Z,103352.67
2023-02-08T06:20:24.813Z,103356.33
2023-02-08T06:22:52.192Z,103358.40
2023-02-08T06:25:19.546Z,103363.60
2023-02-08T06:27:46.847Z,103366.40
2023-02-08T06:30:13.658Z,103369.98
2023-02-08T06:32:41.017Z,103372.27
2023-02-08T06:35:08.348Z,103377.96
2023-02-08T06:37:35.891Z,103382.76
2023-02-08T06:40:03.720Z,103385.47
2023-02-08T06:42:31.237Z,103381.36
2023-02-08T06:44:58.689Z,103381.95
2023-02-08T06:47:26.242Z,103381.95
2023-02-08T06:49:53.185Z,103376.80
2023-02-08T06:52:20.493Z,103375.35
2023-02-08T06:54:47.585Z,103375.41
2023-02-08T06:57:14.356Z,103383.59
2023-02-08T06:59:41.410Z,103394.59
2023-02-08T07:02:12.991Z,103389.70
2023-02-08T07:04:40.004Z,103393.95
2023-02-08T07:07:07.088Z,103384.18
2023-02-08T07:09:34.921Z,103383.69
2023-02-08T07:12:04.644Z,103386.90
2023-02-08T07:14:33.292Z,103387.84
2023-02-08T07:17:02.811Z,103390.27
2023-02-08T07:19:29.991Z,103391.41
2023-02-08T07:21:57.241Z,103399.16
2023-02-08T07:24:24.095Z,103401.92
2023-02-08T07:26:52.063Z,103403.89
2023-02-08T07:29:19.184Z,103403.14
2023-02-08T07:31:46.452Z,103401.96
2023-02-08T07:34:13.665Z,103399.39
2023-02-08T07:36:44.710Z,103397.55
2023-02-08T07:39:12.270Z,103394.19
2023-02-08T07:41:42.349Z,103398.67
2023-02-08T07:44:09.922Z,103397.71
2023-02-08T07:46:36.800Z,103402.92
2023-02-08T07:49:03.757Z,103398.90
2023-02-08T07:51:30.523Z,103394.63
2023-02-08T07:53:57.332Z,103391.34
2023-02-08T07:56:24.202Z,103401.54
2023-02-08T07:58:51.117Z,103404.23
2023-02-08T08:01:22.367Z,103408.86
2023-02-08T08:03:50.798Z,103408.75
2023-02-08T08:06:19.334Z,103403.18
2023-02-08T08:08:47.476Z,103404.31
2023-02-08T08:11:15.510Z,103406.88
2023-02-08T08:13:43.751Z,103415.02
2023-02-08T08:16:10.762Z,103415.17
2023-02-08T08:18:37.592Z,103426.71
2023-02-08T08:21:05.494Z,103429.98
2023-02-08T08:23:32.768Z,103428.09
2023-02-08T08:26:00.328Z,103419.60
2023-02-08T08:28:27.399Z,103422.77
2023-02-08T08:30:54.513Z,103424.91
2023-02-08T08:33:21.718Z,103427.92
2023-02-08T08:35:48.505Z,103425.94
2023-02-08T08:38:15.301Z,103426.84
2023-02-08T08:40:43.000Z,103427.16
2023-02-08T08:43:10.814Z,103426.63
2023-02-08T08:45:37.735Z,103427.96
2023-02-08T08:48:05.398Z,103420.99
2023-02-08T08:50:33.776Z,103418.92
2023-02-08T08:53:00.724Z,103421.73
2023-02-08T08:55:27.986Z,103424.38
2023-02-08T08:57:54.922Z,103421.77
2023-02-08T09:00:22.487Z,103421.85
2023-02-08T09:02:49.527Z,103425.32
2023-02-08T09:05:16.482Z,103420.46
2023-02-08T09:07:43.439Z,103421.15
2023-02-08T09:10:15.508Z,103416.55
2023-02-08T09:12:42.463Z,103409.71
2023-02-08T09:15:11.020Z,103412.30
2023-02-08T09:17:38.370Z,103416.46
2023-02-08T09:20:05.795Z,103409.89
2023-02-08T09:22:33.134Z,103406.33
2023-02-08T09:25:01.844Z,103407.67
2023-02-08T09:27:29.447Z,103407.34
2023-02-08T09:29:56.471Z,103406.25
2023-02-08T09:32:23.624Z,103399.55
2023-02-08T09:34:51.131Z,103395.77
2023-02-08T09:37:18.040Z,103394.30
2023-02-08T09:39:45.166Z,103394.83
2023-02-08T09:42:17.965Z,103397.23
2023-02-08T09:44:55.267Z,103394.86
2023-02-08T09:47:36.463Z,103396.02
2023-02-08T09:50:05.584Z,103398.00
2023-02-08T09:52:42.269Z,103391.61
2023-02-08T09:55:30.970Z,103392.59
2023-02-08T09:57:58.933Z,103393.77
2023-02-08T10:00:41.211Z,103389.48
2023-02-08T10:03:33.306Z,103395.47
2023-02-08T10:06:02.059Z,103392.73
2023-02-08T10:08:35.256Z,103391.62
2023-02-08T10:11:08.978Z,103393.08
2023-02-08T10:14:03.156Z,103391.31
2023-02-08T10:16:49.515Z,103387.06
2023-02-08T10:19:35.636Z,103387.28
2023-02-08T10:22:34.892Z,103387.57
2023-02-08T10:25:23.526Z,103384.45
2023-02-08T10:28:12.609Z,103378.96
2023-02-08T10:30:39.513Z,103379.15
2023-02-08T10:33:11.878Z,103377.35
2023-02-08T10:35:41.884Z,103381.78
2023-02-08T10:38:44.242Z,103383.61
2023-02-08T10:41:35.396Z,103379.58
2023-02-08T10:44:30.396Z,103373.62
2023-02-08T10:47:15.777Z,103370.26
2023-02-08T10:50:09.591Z,103367.44
2023-02-08T10:52:37.431Z,103369.52
2023-02-08T10:55:15.486Z,103367.30
2023-02-08T10:57:43.487Z,103373.39
2023-02-08T11:00:13.296Z,103374.42
2023-02-08T11:02:41.013Z,103369.38
2023-02-08T11:05:13.266Z,103370.33
2023-02-08T11:07:41.814Z,103368.39
2023-02-08T11:10:17.669Z,103363.14
2023-02-08T11:12:57.932Z,103363.23
2023-02-08T11:15:29.096Z,103366.60
2023-02-08T11:18:00.529Z,103366.19
2023-02-08T11:20:36.142Z,103361.45
2023-02-08T11:23:04.814Z,103359.96
2023-02-08T11:25:38.542Z,103360.34
2023-02-08T11:28:41.492Z,103360.58
2023-02-08T11:31:19.547Z,103359.38
2023-02-08T11:34:05.879Z,103358.33
2023-02-08T11:36:33.960Z,103359.52
2023-02-08T11:39:02.934Z,103360.04
2023-02-08T11:41:29.991Z,103362.22
2023-02-08T11:44:01.239Z,103360.35
2023-02-08T11:46:28.988Z,103360.83
2023-02-08T11:48:55.904Z,103359.27
2023-02-08T11:51:31.993Z,103360.73
2023-02-08T11:54:00.380Z,103360.73
2023-02-08T11:56:28.893Z,103359.35
2023-02-08T11:59:15.317Z,103365.65
2023-02-08T12:01:43.118Z,103362.31
2023-02-08T12:04:11.309Z,103366.33
2023-02-08T12:06:58.261Z,103361.02
2023-02-08T12:09:36.425Z,103363.56
2023-02-08T12:12:15.028Z,103354.42
2023-02-08T12:15:13.017Z,103353.80
2023-02-08T12:17:52.585Z,103355.73
2023-02-08T12:20:30.129Z,103355.33
2023-02-08T12:23:09.592Z,103358.00
2023-02-08T12:25:43.065Z,103356.23
2023-02-08T12:28:16.515Z,103362.08
2023-02-08T12:30:57.487Z,103358.46
2023-02-08T12:33:46.531Z,103359.23
2023-02-08T12:37:11.222Z,103361.21
2023-02-08T12:40:38.802Z,103362.75
2023-02-08T12:43:21.269Z,103362.67
2023-02-08T12:45:57.382Z,103362.09
2023-02-08T12:48:33.737Z,103356.83
2023-02-08T12:51:06.612Z,103356.45
2023-02-08T12:53:38.875Z,103358.00
2023-02-08T12:56:08.187Z,103352.87
2023-02-08T12:58:39.814Z,103354.13
2023-02-08T13:01:34.354Z,103353.83
2023-02-08T13:04:09.060Z,103354.99
2023-02-08T13:06:41.716Z,103354.64
2023-02-08T13:16:46.872Z,103352.25
2023-02-08T13:19:27.301Z,103357.24
2023-02-08T13:21:55.721Z,103349.68
2023-02-08T13:24:52.439Z,103346.10
2023-02-08T13:27:29.955Z,103343.21
2023-02-08T13:29:58.648Z,103341.98
2023-02-08T13:32:42.776Z,103335.60
2023-02-08T13:35:20.150Z,103333.36
2023-02-08T13:38:12.392Z,103335.08
2023-02-08T13:40:41.127Z,103334.55
2023-02-08T13:43:34.316Z,103334.73
2023-02-08T13:46:03.480Z,103333.35
2023-02-08T13:48:48.911Z,103333.82
2023-02-08T13:51:32.656Z,103327.57
2023-02-08T13:54:01.069Z,103324.61
2023-02-08T13:56:48.890Z,103331.61
2023-02-08T13:59:29.114Z,103333.61
2023-02-08T14:02:19.113Z,103334.23
2023-02-08T14:05:19.962Z,103340.73
2023-02-08T14:07:48.234Z,103342.73
2023-02-08T14:10:37.704Z,103339.94
2023-02-08T14:13:25.333Z,103333.70
2023-02-08T14:16:24.382Z,103334.48
2023-02-08T14:18:57.934Z,103333.52
2023-02-08T14:21:45.987Z,103332.87
2023-02-08T14:24:23.549Z,103328.79
2023-02-08T14:26:51.853Z,103328.20
2023-02-08T14:29:24.573Z,103331.58
2023-02-08T14:31:55.559Z,103338.00
2023-02-08T14:34:34.894Z,103332.76
2023-02-08T14:37:27.816Z,103331.83
2023-02-08T14:40:23.563Z,103336.70
2023-02-08T14:43:03.334Z,103333.65
2023-02-08T14:45:37.970Z,103338.51
2023-02-08T14:48:20.766Z,103336.66
2023-02-08T14:51:10.884Z,103335.67
2023-02-08T14:53:42.322Z,103334.72
2023-02-08T14:56:10.393Z,103334.56
2023-02-08T14:58:43.627Z,103334.27
2023-02-08T15:01:45.046Z,103338.09
2023-02-08T15:04:13.485Z,103339.52
2023-02-08T15:07:09.364Z,103346.05
2023-02-08T15:09:39.301Z,103342.58
2023-02-08T15:12:34.516Z,103340.35
2023-02-08T15:15:07.157Z,103340.00
2023-02-08T15:17:39.304Z,103342.29
2023-02-08T15:20:09.414Z,103342.15
2023-02-08T15:22:38.621Z,103340.83
2023-02-08T15:25:34.801Z,103339.52
2023-02-08T15:28:24.061Z,103338.40
2023-02-08T15:31:11.885Z,103334.67
2023-02-08T15:33:40.743Z,103342.98
2023-02-08T15:36:15.311Z,103347.69
2023-02-08T15:38:45.083Z,103348.60
2023-02-08T15:41:14.517Z,103346.78
2023-02-08T15:43:43.074Z,103349.55
2023-02-08T15:46:22.290Z,103351.47
2023-02-08T15:48:51.200Z,103353.48
2023-02-08T15:51:23.222Z,103358.42
2023-02-08T15:53:52.767Z,103361.64
2023-02-08T15:56:36.795Z,103362.34
2023-02-08T15:59:07.015Z,103370.97
2023-02-08T16:01:37.121Z,103370.89
2023-02-08T16:04:12.648Z,103375.36
2023-02-08T16:06:53.407Z,103380.65
2023-02-08T16:09:27.526Z,103379.86
2023-02-08T16:12:00.823Z,103383.87
2023-02-08T16:14:38.040Z,103384.67
2023-02-08T16:17:44.230Z,103388.99
2023-02-08T16:20:41.470Z,103386.84
2023-02-08T16:23:25.539Z,103383.71
2023-02-08T16:25:54.129Z,103386.85
2023-02-08T16:28:30.216Z,103386.90
2023-02-08T16:31:00.038Z,103383.11
2023-02-08T16:33:28.200Z,103388.57
2023-02-08T16:36:02.003Z,103394.02
2023-02-08T16:38:31.778Z,103388.95
2023-02-08T16:41:12.338Z,103387.55
2023-02-08T16:43:44.521Z,103387.33
2023-02-08T16:46:16.420Z,103388.16
2023-02-08T16:48:56.849Z,103392.08
2023-02-08T16:51:29.216Z,103400.46
2023-02-08T16:54:02.531Z,103403.20
2023-02-08T16:56:30.732Z,103405.16
2023-02-08T16:58:58.987Z,103402.77
2023-02-08T17:01:28.712Z,103403.46
2023-02-08T17:03:57.070Z,103401.17
2023-02-08T17:06:34.771Z,103397.60
2023-02-08T17:09:06.358Z,103397.45
2023-02-08T17:11:36.196Z,103395.84
2023-02-08T17:14:05.227Z,103396.39
2023-02-08T17:16:34.497Z,103393.84
2023-02-08T17:19:03.036Z,103392.96
2023-02-08T17:21:31.434Z,103395.03
2023-02-08T17:23:59.486Z,103395.00
2023-02-08T17:26:37.950Z,103393.17
2023-02-08T17:29:06.182Z,103398.90
2023-02-08T17:31:35.902Z,103397.54
2023-02-08T17:34:07.034Z,103395.02
2023-02-08T17:36:37.130Z,103387.02
2023-02-08T17:39:05.519Z,103385.89
2023-02-08T17:41:35.511Z,103385.25
2023-02-08T17:44:04.278Z,103381.69
2023-02-08T17:46:33.484Z,103379.30
2023-02-08T17:49:01.938Z,103376.89
2023-02-08T17:51:30.733Z,103376.58
2023-02-08T17:53:58.959Z,103379.48
2023-02-08T17:56:28.645Z,103376.36
2023-02-08T17:58:56.707Z,103377.73
2023-02-08T18:01:26.336Z,103376.36
2023-02-08T18:03:55.068Z,103376.67
2023-02-08T18:06:25.083Z,103371.98
2023-02-08T18:08:56.439Z,103375.97
2023-02-08T18:11:24.734Z,103372.79
2023-02-08T18:13:53.454Z,103374.42
2023-02-08T18:16:24.047Z,103382.08
2023-02-08T18:18:55.643Z,103387.38
2023-02-08T18:21:25.947Z,103387.83
2023-02-08T18:23:55.744Z,103384.86
2023-02-08T18:26:24.299Z,103389.98
2023-02-08T18:28:53.023Z,103390.84
2023-02-08T18:31:21.308Z,103391.27
2023-02-08T18:33:50.244Z,103387.64
2023-02-08T18:36:19.625Z,103389.63
2023-02-08T18:38:52.679Z,103387.40
2023-02-08T18:41:26.261Z,103389.52
2023-02-08T18:43:55.402Z,103394.27
2023-02-08T18:46:26.390Z,103393.52
2023-02-08T18:48:54.690Z,103393.46
2023-02-08T18:51:23.407Z,103393.10
2023-02-08T18:53:53.753Z,103392.45
2023-02-08T18:56:24.022Z,103394.35
2023-02-08T18:58:52.956Z,103401.28
2023-02-08T19:01:22.681Z,103398.13
2023-02-08T19:03:52.020Z,103399.80
2023-02-08T19:06:22.826Z,103393.73
2023-02-08T19:08:52.448Z,103393.91
2023-02-08T19:11:20.583Z,103395.54
2023-02-08T19:13:49.617Z,103394.95
2023-02-08T19:16:17.988Z,103391.73
2023-02-08T19:18:48.566Z,103391.06
2023-02-08T19:21:17.588Z,103385.40
2023-02-08T19:23:47.581Z,103383.88
2023-02-08T19:26:25.652Z,103379.44
2023-02-08T19:28:57.737Z,103372.50
2023-02-08T19:31:26.790Z,103377.02
2023-02-08T19:33:58.505Z,103377.07
2023-02-08T19:36:29.166Z,103373.20
2023-02-08T19:38:57.574Z,103375.77
2023-02-08T19:41:32.503Z,103379.98
2023-02-08T19:44:01.648Z,103379.86
2023-02-08T19:46:29.964Z,103380.11
2023-02-08T19:49:01.676Z,103378.13
2023-02-08T19:51:32.292Z,103381.73
2023-02-08T19:54:01.447Z,103375.51
2023-02-08T19:56:33.875Z,103371.53
2023-02-08T19:59:06.334Z,103370.06
2023-02-08T20:01:35.522Z,103367.80
2023-02-08T20:04:05.773Z,103369.88
2023-02-08T20:06:36.083Z,103373.46
2023-02-08T20:09:05.593Z,103372.04
2023-02-08T20:11:45.121Z,103374.65
2023-02-08T20:14:19.475Z,103373.32
2023-02-08T20:16:48.148Z,103366.20
2023-02-08T20:19:16.499Z,103366.28
2023-02-08T20:21:45.591Z,103364.30
2023-02-08T20:24:14.022Z,103362.77
2023-02-08T20:26:43.973Z,103360.31
2023-02-08T20:29:12.719Z,103364.60
2023-02-08T20:31:43.371Z,103363.94
2023-02-08T20:34:13.455Z,103368.41
2023-02-08T20:36:49.772Z,103372.72
2023-02-08T20:39:22.653Z,103370.16
2023-02-08T20:41:51.105Z,103372.59
2023-02-08T20:44:19.979Z,103369.97
2023-02-08T20:46:48.222Z,103375.98
2023-02-08T20:49:22.099Z,103374.21
2023-02-08T20:51:52.165Z,103372.39
2023-02-08T20:54:20.491Z,103379.13
2023-02-08T20:56:48.768Z,103382.77
2023-02-08T20:59:17.061Z,103379.13
2023-02-08T21:01:46.602Z,103385.81
2023-02-08T21:04:17.186Z,103384.42
2023-02-08T21:06:46.335Z,103390.34
2023-02-08T21:09:16.159Z,103385.72
2023-02-08T21:11:44.704Z,103389.74
2023-02-08T21:14:19.095Z,103392.27
2023-02-08T21:16:48.781Z,103393.90
2023-02-08T21:19:17.443Z,103396.61
2023-02-08T21:21:45.936Z,103397.54
2023-02-08T21:24:15.243Z,103395.21
2023-02-08T21:26:43.307Z,103393.71
2023-02-08T21:29:11.501Z,103392.20
2023-02-08T21:31:39.782Z,103389.39
2023-02-08T21:34:08.188Z,103388.65
2023-02-08T21:36:36.612Z,103380.84
2023-02-08T21:39:05.982Z,103383.27
2023-02-08T21:41:34.380Z,103377.77
2023-02-08T21:44:03.931Z,103372.58
2023-02-08T21:46:32.326Z,103371.69
2023-02-08T21:49:19.584Z,103367.54
2023-02-08T21:52:07.716Z,103362.55
2023-02-08T21:54:41.736Z,103357.91
2023-02-08T21:57:19.100Z,103361.36
2023-02-08T21:59:51.963Z,103362.20
2023-02-08T22:02:28.173Z,103367.88
2023-02-08T22:05:00.286Z,103361.06
2023-02-08T22:07:32.199Z,103366.61
2023-02-08T22:10:07.475Z,103363.55
2023-02-08T22:12:40.341Z,103362.96
2023-02-08T22:15:12.136Z,103361.50
2023-02-08T22:17:44.168Z,103359.59
2023-02-08T22:20:15.916Z,103359.67
2023-02-08T22:22:47.221Z,103361.19
2023-02-08T22:25:18.803Z,103361.02
2023-02-08T22:27:49.470Z,103360.05
2023-02-08T22:30:20.984Z,103355.76
2023-02-08T22:32:52.558Z,103353.08
2023-02-08T22:35:22.762Z,103348.49
2023-02-08T22:37:52.136Z,103340.59
2023-02-08T22:40:23.769Z,103340.42
2023-02-08T22:42:54.206Z,103337.18
2023-02-08T22:45:24.428Z,103339.90
2023-02-08T22:47:55.217Z,103340.50
2023-02-08T22:50:26.408Z,103337.86
2023-02-08T23:00:32.498Z,103327.61
2023-02-08T23:03:00.810Z,103329.55
2023-02-08T23:05:29.387Z,103333.10
2023-02-08T23:07:58.022Z,103333.63
2023-02-08T23:10:26.300Z,103335.89
2023-02-08T23:12:54.690Z,103339.08
2023-02-08T23:15:22.954Z,103338.34
2023-02-08T23:17:52.428Z,103344.51
2023-02-08T23:20:20.537Z,103351.95
2023-02-08T23:22:49.318Z,103352.23
2023-02-08T23:25:18.131Z,103351.69
2023-02-08T23:27:46.585Z,103347.63
2023-02-08T23:30:15.305Z,103347.48
2023-02-08T23:32:43.985Z,103346.19
2023-02-08T23:35:12.440Z,103340.56
2023-02-08T23:37:40.935Z,103342.15
2023-02-08T23:40:10.400Z,103342.27
2023-02-08T23:42:38.739Z,103340.13
2023-02-08T23:45:08.030Z,103336.90
2023-02-08T23:47:37.721Z,103336.64
2023-02-08T23:50:07.091Z,103332.90
2023-02-08T23:52:35.506Z,103331.45
2023-02-08T23:55:05.132Z,103329.67
2023-02-08T23:57:36.681Z,103327.90
